Terminal Aerodrome Forecast
Issued by NWS

Home | Current Version | Previous Version | Graphics & Text | Print | Product List | Glossary On
Versions: 1 2 3 4 5 6 7 8 9 10 11 12 13 14 15 16
000
FTUS42 KMHX 301755
TAFPGV
TAF
KPGV 301755Z 3018/0118 15008KT P6SM VCTS SCT030CB BKN050
     FM010100 16005KT P6SM BKN090
     FM010500 VRB03KT 3SM BR SCT130
     FM010800 00000KT 2SM BR FEW025 SCT130
     FM011300 21006KT P6SM SCT090
      AMD LTD TO CLD VIS AND WIND=

USA.gov is the U.S. government's official web portal to all federal, state and local government web resources and services.